Time;durP1;ratioP1;P1;durP2;ratioP2;P2;SDS_P1;SDS_P2;PMS_P1;PMS_P2;Temp;Humidity;BMP_temperature;BMP_pressure;BME280_temperature;BME280_humidity;BME280_pressure;Samples;Min_cycle;Max_cycle;Signal;HPM_P1;HPM_P2
2024/01/29 00:02:01;;;;;;;18.77;7.03;;;;;;;13.15;100.00;101362.91;5020788;28;20029;-49
2024/01/29 00:04:27;;;;;;;11.10;6.30;;;;;;;13.07;100.00;101360.34;5018148;28;20038;-45
2024/01/29 00:06:52;;;;;;;11.32;6.63;;;;;;;13.07;100.00;101361.16;5018288;28;20021;-45
2024/01/29 00:09:18;;;;;;;27.15;6.03;;;;;;;13.14;100.00;101357.75;5010306;28;20502;-49
2024/01/29 00:11:43;;;;;;;15.45;8.40;;;;;;;13.14;100.00;101355.09;5018713;28;20046;-46
2024/01/29 00:14:09;;;;;;;17.67;8.27;;;;;;;13.20;100.00;101357.84;5015627;28;20057;-48
2024/01/29 00:16:34;;;;;;;15.25;7.03;;;;;;;13.18;100.00;101362.53;5014166;28;20522;-46
2024/01/29 00:19:00;;;;;;;13.52;6.55;;;;;;;13.20;100.00;101365.81;5017787;28;20421;-48
2024/01/29 00:21:25;;;;;;;13.93;6.35;;;;;;;13.16;100.00;101358.38;5017039;28;20478;-47
2024/01/29 00:23:50;;;;;;;11.60;6.53;;;;;;;13.21;100.00;101356.81;5018745;28;20487;-47
2024/01/29 00:26:16;;;;;;;17.60;7.35;;;;;;;13.22;100.00;101358.47;5015122;28;20124;-47
2024/01/29 00:28:41;;;;;;;13.57;6.32;;;;;;;13.25;100.00;101357.28;5016471;28;20145;-47
2024/01/29 00:31:07;;;;;;;17.48;7.53;;;;;;;13.14;100.00;101358.59;5017171;28;20048;-47
2024/01/29 00:33:32;;;;;;;11.07;6.13;;;;;;;13.15;100.00;101362.91;5021707;28;20383;-47
2024/01/29 00:35:58;;;;;;;12.75;6.32;;;;;;;13.12;100.00;101360.63;5020362;28;20108;-48
2024/01/29 00:38:23;;;;;;;14.63;7.40;;;;;;;13.18;100.00;101359.03;5020521;28;20037;-50
2024/01/29 00:40:49;;;;;;;15.10;7.10;;;;;;;13.25;100.00;101360.75;5018691;28;20045;-48
2024/01/29 00:43:14;;;;;;;24.73;8.57;;;;;;;13.27;100.00;101365.94;5019700;28;20079;-46
2024/01/29 00:45:40;;;;;;;13.60;6.40;;;;;;;13.35;100.00;101365.00;5012293;28;20025;-47
2024/01/29 00:48:05;;;;;;;10.48;6.43;;;;;;;13.35;100.00;101367.69;5015335;28;20447;-50
2024/01/29 00:50:30;;;;;;;13.15;5.72;;;;;;;13.28;100.00;101365.75;5019251;28;20044;-51
2024/01/29 00:52:56;;;;;;;9.70;4.75;;;;;;;13.21;100.00;101367.47;5014040;28;20042;-49
2024/01/29 00:55:21;;;;;;;11.65;5.95;;;;;;;13.16;100.00;101369.03;5011903;28;20029;-46
2024/01/29 00:57:47;;;;;;;14.82;5.82;;;;;;;13.14;100.00;101371.91;5012432;28;20029;-48
2024/01/29 01:00:12;;;;;;;15.85;7.35;;;;;;;13.09;100.00;101371.66;5010068;28;20651;-48
2024/01/29 01:02:38;;;;;;;22.25;8.57;;;;;;;13.05;100.00;101363.19;5013459;28;20022;-47
2024/01/29 01:05:03;;;;;;;14.32;6.20;;;;;;;13.11;100.00;101372.25;5016510;28;20744;-49
2024/01/29 01:07:29;;;;;;;12.13;5.78;;;;;;;13.07;100.00;101368.34;5013255;28;20124;-48
2024/01/29 01:09:54;;;;;;;11.85;8.50;;;;;;;13.05;100.00;101368.50;5019965;28;20033;-47
2024/01/29 01:12:19;;;;;;;11.65;4.80;;;;;;;13.06;100.00;101372.00;5018937;28;20144;-44
2024/01/29 01:14:45;;;;;;;11.73;6.80;;;;;;;13.02;100.00;101365.41;5019215;28;20037;-45
2024/01/29 01:17:10;;;;;;;11.18;5.32;;;;;;;12.95;100.00;101381.28;5017861;28;20025;-46
2024/01/29 01:19:35;;;;;;;9.27;4.80;;;;;;;13.00;100.00;101378.88;5021705;28;20060;-51
2024/01/29 01:22:01;;;;;;;8.73;5.72;;;;;;;13.10;100.00;101382.09;5008210;28;20025;-48
2024/01/29 01:24:26;;;;;;;17.33;7.88;;;;;;;13.14;100.00;101381.72;5014927;28;20132;-46
2024/01/29 01:26:52;;;;;;;9.10;4.72;;;;;;;13.21;100.00;101382.63;5012023;28;20618;-50
2024/01/29 01:29:18;;;;;;;11.05;4.80;;;;;;;13.13;100.00;101378.22;5007015;28;20044;-48
2024/01/29 01:31:43;;;;;;;14.70;5.72;;;;;;;13.07;100.00;101377.13;5006611;28;20036;-48
2024/01/29 01:34:09;;;;;;;12.07;5.50;;;;;;;13.15;100.00;101380.72;5018604;28;20022;-46
2024/01/29 01:36:34;;;;;;;11.05;6.47;;;;;;;13.24;100.00;101372.44;5016661;28;20030;-50
2024/01/29 01:38:59;;;;;;;9.63;5.30;;;;;;;13.28;100.00;101364.94;5012071;28;20240;-48
2024/01/29 01:41:25;;;;;;;11.10;4.82;;;;;;;13.31;100.00;101367.22;5015414;28;20132;-47
2024/01/29 01:43:50;;;;;;;31.48;6.97;;;;;;;13.30;100.00;101366.38;5019269;28;20029;-48
2024/01/29 01:46:22;;;;;;;13.05;6.45;;;;;;;13.18;100.00;101365.19;5018051;28;20044;-49
2024/01/29 01:48:52;;;;;;;11.63;5.15;;;;;;;13.13;100.00;101366.75;5011906;28;20061;-49
2024/01/29 01:51:20;;;;;;;10.15;7.13;;;;;;;13.03;100.00;101370.53;5016912;28;20461;-51
2024/01/29 01:53:46;;;;;;;9.77;5.70;;;;;;;12.92;100.00;101368.34;5012465;28;20021;-48
2024/01/29 01:56:12;;;;;;;15.95;5.72;;;;;;;12.88;100.00;101367.03;5016864;28;20651;-48
2024/01/29 01:58:41;;;;;;;19.05;8.48;;;;;;;12.80;100.00;101369.81;5022602;28;20060;-49
2024/01/29 02:01:07;;;;;;;11.93;5.63;;;;;;;12.68;100.00;101372.13;5012037;28;20033;-48
2024/01/29 02:03:32;;;;;;;10.27;5.43;;;;;;;12.60;100.00;101372.22;5020291;28;20475;-50
2024/01/29 02:05:57;;;;;;;14.57;6.55;;;;;;;12.72;100.00;101370.72;5012705;28;20029;-46
2024/01/29 02:08:23;;;;;;;11.18;6.28;;;;;;;12.76;100.00;101381.84;5014196;28;20104;-46
2024/01/29 02:10:50;;;;;;;27.13;6.47;;;;;;;12.82;100.00;101379.25;5012921;28;20033;-49
2024/01/29 02:13:16;;;;;;;8.55;4.47;;;;;;;12.81;100.00;101379.47;5020382;28;20629;-49
2024/01/29 02:15:41;;;;;;;13.57;4.88;;;;;;;12.96;100.00;101379.44;5016862;28;20036;-45
2024/01/29 02:18:07;;;;;;;9.68;4.97;;;;;;;12.96;100.00;101385.59;5011444;28;20479;-47
2024/01/29 02:20:33;;;;;;;15.30;4.70;;;;;;;12.87;100.00;101384.84;5014277;28;20026;-51
2024/01/29 02:22:59;;;;;;;13.82;7.00;;;;;;;12.94;100.00;101387.63;5017748;28;20021;-47
2024/01/29 02:25:24;;;;;;;22.33;6.70;;;;;;;12.97;100.00;101397.06;5017628;28;20036;-47
2024/01/29 02:27:50;;;;;;;8.13;6.45;;;;;;;12.94;100.00;101387.63;5018498;28;20025;-48
2024/01/29 02:30:15;;;;;;;10.95;5.43;;;;;;;12.99;100.00;101392.41;5014381;28;20395;-49
2024/01/29 02:32:41;;;;;;;10.75;5.38;;;;;;;13.05;100.00;101389.00;5021516;28;20112;-49
2024/01/29 02:35:06;;;;;;;13.18;5.18;;;;;;;13.04;100.00;101390.00;5025931;28;20765;-49
2024/01/29 02:37:32;;;;;;;11.88;5.63;;;;;;;13.01;100.00;101393.00;5024517;28;20389;-49
2024/01/29 02:39:58;;;;;;;16.15;6.78;;;;;;;13.01;100.00;101387.69;5023120;28;20555;-46
2024/01/29 02:42:24;;;;;;;14.95;6.55;;;;;;;12.79;100.00;101394.78;5023211;28;20037;-52
2024/01/29 02:44:49;;;;;;;9.57;5.57;;;;;;;12.79;100.00;101392.13;5017592;28;20030;-50
2024/01/29 02:47:15;;;;;;;19.52;6.47;;;;;;;12.82;100.00;101395.22;5017991;28;20079;-49
2024/01/29 02:49:43;;;;;;;15.88;5.75;;;;;;;12.87;100.00;101382.19;5015139;28;20486;-48
2024/01/29 02:52:11;;;;;;;10.30;7.07;;;;;;;13.00;100.00;101388.72;5019955;28;20530;-49
2024/01/29 02:54:36;;;;;;;11.38;6.07;;;;;;;13.02;100.00;101378.72;5014503;28;20025;-47
2024/01/29 02:57:02;;;;;;;12.68;5.10;;;;;;;13.06;100.00;101379.97;5016917;28;20084;-46
2024/01/29 02:59:28;;;;;;;8.40;4.38;;;;;;;13.02;100.00;101384.03;5022699;28;20025;-45
2024/01/29 03:01:55;;;;;;;19.25;6.57;;;;;;;12.97;100.00;101383.75;5020587;28;20021;-45
2024/01/29 03:04:21;;;;;;;10.02;4.97;;;;;;;12.97;100.00;101379.25;5017070;28;20033;-47
2024/01/29 03:06:46;;;;;;;10.02;6.25;;;;;;;13.01;100.00;101375.22;5013487;28;20372;-48
2024/01/29 03:09:11;;;;;;;9.50;4.45;;;;;;;13.01;100.00;101380.56;5021684;28;20056;-50
2024/01/29 03:11:37;;;;;;;12.90;7.13;;;;;;;13.07;100.00;101381.66;5022754;28;20056;-46
2024/01/29 03:14:02;;;;;;;7.45;4.55;;;;;;;13.14;100.00;101373.72;5018773;28;20049;-43
2024/01/29 03:16:27;;;;;;;9.40;4.25;;;;;;;13.17;100.00;101373.38;5018812;28;20025;-44
2024/01/29 03:18:53;;;;;;;11.55;5.32;;;;;;;13.10;100.00;101370.63;5022034;28;20123;-44
2024/01/29 03:21:18;;;;;;;9.23;5.05;;;;;;;13.04;100.00;101376.69;5018813;28;20541;-45
2024/01/29 03:23:43;;;;;;;10.95;4.70;;;;;;;13.02;100.00;101365.41;5015564;28;20075;-47
2024/01/29 03:26:09;;;;;;;9.88;4.93;;;;;;;13.09;100.00;101366.31;5017706;28;20175;-44
2024/01/29 03:28:34;;;;;;;12.32;6.45;;;;;;;13.16;100.00;101369.88;5027809;28;20108;-46
2024/01/29 03:30:59;;;;;;;10.00;5.50;;;;;;;13.15;100.00;101370.06;5018757;28;20033;-47
2024/01/29 03:33:25;;;;;;;15.23;5.18;;;;;;;12.98;100.00;101366.78;5021939;28;20036;-47
2024/01/29 03:35:50;;;;;;;14.35;5.32;;;;;;;12.92;100.00;101375.50;5017775;28;20053;-43
2024/01/29 03:38:15;;;;;;;11.82;5.90;;;;;;;13.03;100.00;101375.84;5018445;28;20033;-44
2024/01/29 03:40:41;;;;;;;15.52;5.47;;;;;;;12.97;100.00;101373.94;5015863;28;20026;-48
2024/01/29 03:43:06;;;;;;;11.82;5.00;;;;;;;13.07;100.00;101371.81;5020530;28;20048;-44
2024/01/29 03:45:31;;;;;;;10.13;5.47;;;;;;;13.16;100.00;101369.03;5019660;28;20482;-44
2024/01/29 03:47:57;;;;;;;11.57;6.30;;;;;;;13.25;100.00;101358.09;5031052;28;20083;-47
2024/01/29 03:50:22;;;;;;;5.00;3.42;;;;;;;13.28;100.00;101360.41;5016938;28;20471;-48
2024/01/29 03:52:47;;;;;;;21.08;4.50;;;;;;;13.31;100.00;101353.88;5020098;28;20069;-50
2024/01/29 03:55:13;;;;;;;10.32;4.72;;;;;;;13.23;100.00;101349.47;5023373;28;20044;-46
2024/01/29 03:57:39;;;;;;;16.75;5.38;;;;;;;13.22;100.00;101355.81;5011237;28;20359;-45
2024/01/29 04:00:08;;;;;;;31.55;7.00;;;;;;;13.30;100.00;101355.75;5019476;28;20046;-47
2024/01/29 04:02:33;;;;;;;17.40;6.05;;;;;;;13.38;100.00;101351.31;5018567;28;20504;-49
2024/01/29 04:04:58;;;;;;;13.77;6.13;;;;;;;13.51;100.00;101354.94;5017245;28;20036;-44
2024/01/29 04:07:24;;;;;;;17.67;8.57;;;;;;;13.50;100.00;101355.13;5023337;28;20112;-45
2024/01/29 04:09:49;;;;;;;18.45;5.55;;;;;;;13.53;100.00;101357.44;5017784;28;20478;-45
2024/01/29 04:12:15;;;;;;;21.15;9.10;;;;;;;13.56;100.00;101353.56;5014312;28;20029;-48
2024/01/29 04:14:40;;;;;;;23.25;8.07;;;;;;;13.64;100.00;101353.44;5020803;28;20388;-46
2024/01/29 04:17:07;;;;;;;16.75;7.25;;;;;;;13.75;100.00;101358.25;5020122;28;20041;-48
2024/01/29 04:19:33;;;;;;;19.83;6.97;;;;;;;13.76;100.00;101359.91;5019229;28;20037;-47
2024/01/29 04:21:58;;;;;;;21.90;6.68;;;;;;;13.85;100.00;101357.94;5011614;28;20021;-46
2024/01/29 04:24:24;;;;;;;20.27;7.32;;;;;;;13.84;100.00;101357.13;5007445;28;20033;-50
2024/01/29 04:26:49;;;;;;;26.23;8.90;;;;;;;13.81;100.00;101357.50;5013609;28;20647;-46
2024/01/29 04:29:14;;;;;;;30.20;8.00;;;;;;;13.82;100.00;101350.31;5022359;28;20041;-46
2024/01/29 04:31:40;;;;;;;21.35;9.45;;;;;;;13.83;100.00;101360.78;5017003;28;20044;-45
2024/01/29 04:34:06;;;;;;;31.55;9.93;;;;;;;13.91;100.00;101362.50;5020257;28;20030;-44
2024/01/29 04:36:31;;;;;;;27.58;11.63;;;;;;;13.94;100.00;101362.13;5018087;28;20030;-46
2024/01/29 04:38:57;;;;;;;18.55;7.13;;;;;;;13.89;100.00;101357.38;5020832;28;20040;-46
2024/01/29 04:41:22;;;;;;;21.13;7.32;;;;;;;14.01;100.00;101359.50;5017462;28;20034;-46
2024/01/29 04:43:48;;;;;;;12.68;7.22;;;;;;;14.02;100.00;101361.13;5024703;28;20045;-45
2024/01/29 04:46:15;;;;;;;31.73;8.90;;;;;;;13.95;100.00;101364.59;5019700;28;20069;-45
2024/01/29 04:48:40;;;;;;;26.77;8.52;;;;;;;13.94;100.00;101372.78;5018695;28;20087;-48
2024/01/29 04:51:07;;;;;;;14.93;7.30;;;;;;;13.89;100.00;101376.03;5009452;28;20538;-44
2024/01/29 04:53:33;;;;;;;28.33;10.43;;;;;;;13.96;100.00;101374.25;5022536;28;20108;-48
2024/01/29 04:56:00;;;;;;;27.45;8.68;;;;;;;14.00;100.00;101373.88;5014953;28;20040;-48
2024/01/29 04:58:25;;;;;;;22.80;9.18;;;;;;;13.99;100.00;101378.34;5021230;28;20067;-45
2024/01/29 05:00:50;;;;;;;20.17;6.53;;;;;;;13.92;100.00;101369.50;5021339;28;20589;-46
2024/01/29 05:03:16;;;;;;;46.35;11.32;;;;;;;14.03;100.00;101371.63;5014850;28;20436;-46
2024/01/29 05:05:41;;;;;;;18.17;8.23;;;;;;;14.07;100.00;101369.38;5012332;28;20514;-45
2024/01/29 05:08:06;;;;;;;22.10;7.75;;;;;;;14.08;100.00;101373.72;5020661;28;20454;-45
2024/01/29 05:10:32;;;;;;;20.70;9.85;;;;;;;14.12;100.00;101365.16;5018767;28;20498;-46
2024/01/29 05:12:57;;;;;;;19.50;8.75;;;;;;;14.09;100.00;101365.50;5021952;28;20037;-48
2024/01/29 05:15:22;;;;;;;22.83;9.65;;;;;;;14.11;100.00;101366.16;5019514;28;20051;-47
2024/01/29 05:17:48;;;;;;;28.98;9.60;;;;;;;14.13;100.00;101364.13;5019016;28;20025;-45
2024/01/29 05:20:13;;;;;;;16.70;9.23;;;;;;;14.13;100.00;101368.63;5017890;28;20095;-47
2024/01/29 05:22:40;;;;;;;18.33;8.15;;;;;;;14.23;100.00;101377.13;5018428;28;20042;-44
2024/01/29 05:25:05;;;;;;;18.08;8.48;;;;;;;14.16;100.00;101387.72;5019823;28;20034;-47
2024/01/29 05:27:31;;;;;;;20.27;7.13;;;;;;;14.34;100.00;101383.78;5016938;28;20443;-47
2024/01/29 05:29:56;;;;;;;14.25;8.50;;;;;;;14.38;100.00;101375.19;5015906;28;20415;-44
2024/01/29 05:32:21;;;;;;;14.10;6.22;;;;;;;14.46;100.00;101379.56;5012606;28;20037;-46
2024/01/29 05:34:47;;;;;;;15.20;6.90;;;;;;;14.50;100.00;101378.13;5022859;28;20037;-46
2024/01/29 05:37:12;;;;;;;16.52;7.40;;;;;;;14.46;100.00;101376.91;5015647;28;20041;-49
2024/01/29 05:39:37;;;;;;;24.08;7.78;;;;;;;14.59;100.00;101376.19;5007013;28;20103;-50
2024/01/29 05:42:03;;;;;;;17.75;6.40;;;;;;;14.59;100.00;101379.69;5016830;28;20041;-46
2024/01/29 05:44:29;;;;;;;10.88;6.32;;;;;;;14.34;100.00;101387.25;5019389;28;20220;-45
2024/01/29 05:46:54;;;;;;;23.92;7.80;;;;;;;14.28;100.00;101387.22;5011970;28;20490;-49
2024/01/29 05:49:21;;;;;;;14.73;6.32;;;;;;;14.45;100.00;101380.56;5016749;28;20022;-46
2024/01/29 05:51:47;;;;;;;9.38;6.15;;;;;;;14.46;100.00;101382.22;5014457;28;20387;-45
2024/01/29 05:54:12;;;;;;;17.35;7.15;;;;;;;14.47;100.00;101373.19;5020162;28;20029;-44
2024/01/29 05:56:42;;;;;;;23.35;7.28;;;;;;;14.37;100.00;101370.84;5010746;28;20550;-45
2024/01/29 05:59:07;;;;;;;21.77;8.80;;;;;;;14.28;100.00;101379.22;5017207;28;20108;-46
2024/01/29 06:01:33;;;;;;;15.10;7.80;;;;;;;14.32;100.00;101383.13;5014597;28;20025;-46
2024/01/29 06:03:59;;;;;;;22.88;8.45;;;;;;;14.45;100.00;101374.41;5019482;28;20433;-46
2024/01/29 06:06:24;;;;;;;19.67;8.50;;;;;;;14.48;100.00;101374.00;5013843;28;20029;-45
2024/01/29 06:08:49;;;;;;;14.45;7.70;;;;;;;14.45;100.00;101377.91;5021258;28;20033;-44
2024/01/29 06:11:14;;;;;;;20.17;6.88;;;;;;;14.32;100.00;101383.13;5017390;28;20944;-45
2024/01/29 06:13:40;;;;;;;18.65;9.27;;;;;;;14.46;100.00;101384.91;5017142;28;20038;-46
2024/01/29 06:16:05;;;;;;;12.57;6.45;;;;;;;14.33;100.00;101393.63;5013874;28;20483;-48
2024/01/29 06:18:31;;;;;;;14.75;6.97;;;;;;;14.21;100.00;101400.50;5018193;28;20509;-43
2024/01/29 06:20:56;;;;;;;23.55;7.47;;;;;;;14.19;100.00;101397.19;5018170;28;20044;-47
2024/01/29 06:23:21;;;;;;;17.25;7.10;;;;;;;14.16;100.00;101397.59;5017195;28;20454;-46
2024/01/29 06:25:47;;;;;;;14.48;7.32;;;;;;;14.14;100.00;101408.44;5018138;28;20048;-43
2024/01/29 06:28:12;;;;;;;16.00;7.72;;;;;;;14.13;100.00;101405.97;5018916;28;20046;-45
2024/01/29 06:30:37;;;;;;;17.30;7.28;;;;;;;14.06;100.00;101413.91;5019609;28;20045;-46
2024/01/29 06:33:03;;;;;;;12.23;7.82;;;;;;;14.15;100.00;101406.63;5008004;28;20769;-44
2024/01/29 06:35:29;;;;;;;8.60;7.40;;;;;;;14.15;100.00;101426.09;5011944;28;20407;-46
2024/01/29 06:37:54;;;;;;;14.82;6.80;;;;;;;14.23;100.00;101422.47;5022387;28;20032;-48
2024/01/29 06:40:26;;;;;;;15.85;6.43;;;;;;;14.28;100.00;101424.56;5011930;28;20104;-44
2024/01/29 06:42:52;;;;;;;26.65;7.28;;;;;;;14.23;100.00;101429.66;5020478;28;20033;-47
2024/01/29 06:45:17;;;;;;;14.93;6.60;;;;;;;14.32;100.00;101429.31;5015191;28;20029;-46
2024/01/29 06:47:42;;;;;;;17.60;6.65;;;;;;;14.39;100.00;101429.38;5015319;28;20032;-47
2024/01/29 06:50:08;;;;;;;13.45;8.25;;;;;;;14.35;100.00;101433.44;5015865;28;20121;-44
2024/01/29 06:52:33;;;;;;;15.07;7.30;;;;;;;14.28;100.00;101437.91;5020209;28;20048;-47
2024/01/29 06:55:00;;;;;;;18.83;7.20;;;;;;;14.31;100.00;101429.53;5012138;28;20030;-45
2024/01/29 06:57:25;;;;;;;19.80;8.60;;;;;;;14.29;100.00;101439.56;5011077;28;20114;-48
2024/01/29 06:59:51;;;;;;;21.50;8.38;;;;;;;14.38;100.00;101446.41;5017810;28;20021;-46
2024/01/29 07:02:17;;;;;;;11.82;6.15;;;;;;;14.34;100.00;101440.63;5016789;28;20033;-48
2024/01/29 07:04:43;;;;;;;18.60;9.25;;;;;;;14.32;100.00;101449.84;5011702;28;20036;-47
2024/01/29 07:07:08;;;;;;;16.40;6.35;;;;;;;14.30;100.00;101446.53;5021210;28;20026;-48
2024/01/29 07:09:33;;;;;;;14.02;6.78;;;;;;;14.27;100.00;101442.41;5018737;28;20044;-46
2024/01/29 07:11:59;;;;;;;10.05;6.25;;;;;;;14.40;100.00;101447.88;5017844;28;20045;-49
2024/01/29 07:14:24;;;;;;;29.20;8.25;;;;;;;14.29;100.00;101440.38;5018640;28;20483;-46
2024/01/29 07:16:50;;;;;;;18.88;8.40;;;;;;;14.37;100.00;101442.91;5016977;28;20383;-45
2024/01/29 07:19:21;;;;;;;21.08;6.90;;;;;;;14.38;100.00;101436.56;5011260;28;20034;-44
2024/01/29 07:21:47;;;;;;;18.83;6.70;;;;;;;14.42;100.00;101442.31;5022497;28;20122;-44
2024/01/29 07:24:13;;;;;;;12.48;6.65;;;;;;;14.41;100.00;101438.03;5013898;28;20512;-46
2024/01/29 07:26:38;;;;;;;21.13;5.90;;;;;;;14.37;100.00;101431.41;5018087;28;20029;-46
2024/01/29 07:29:03;;;;;;;15.82;9.55;;;;;;;14.27;100.00;101433.56;5025028;28;20029;-44
2024/01/29 07:31:29;;;;;;;18.45;7.35;;;;;;;14.34;100.00;101437.94;5015804;28;20111;-45
2024/01/29 07:33:54;;;;;;;14.02;7.72;;;;;;;14.29;100.00;101436.88;5022042;28;20033;-47
2024/01/29 07:36:19;;;;;;;16.58;7.13;;;;;;;14.40;100.00;101445.22;5019990;28;20569;-48
2024/01/29 07:38:45;;;;;;;22.83;9.90;;;;;;;14.42;100.00;101434.31;5022705;28;20029;-47
2024/01/29 07:41:10;;;;;;;14.63;7.00;;;;;;;14.35;100.00;101434.28;5018467;28;20595;-46
2024/01/29 07:43:36;;;;;;;10.95;5.13;;;;;;;14.39;100.00;101440.06;5022493;28;20394;-44
2024/01/29 07:46:01;;;;;;;17.92;8.52;;;;;;;14.34;100.00;101440.63;5018911;28;20112;-45
2024/01/29 07:48:26;;;;;;;20.17;9.88;;;;;;;14.38;100.00;101441.91;5015512;28;20057;-46
2024/01/29 07:50:52;;;;;;;17.55;7.57;;;;;;;14.38;100.00;101441.91;5015961;28;20135;-44
2024/01/29 07:53:17;;;;;;;35.10;10.07;;;;;;;14.36;100.00;101446.59;5016180;28;20210;-45
2024/01/29 07:55:42;;;;;;;21.95;8.30;;;;;;;14.38;100.00;101452.56;5015115;28;20036;-49
2024/01/29 07:58:08;;;;;;;12.75;8.77;;;;;;;14.40;100.00;101460.34;5012954;28;20091;-45
2024/01/29 08:00:34;;;;;;;24.42;9.95;;;;;;;14.34;100.00;101453.97;5005258;28;20824;-45
2024/01/29 08:02:59;;;;;;;17.30;8.93;;;;;;;14.17;100.00;101458.75;5016064;28;20033;-45
2024/01/29 08:05:24;;;;;;;12.98;7.35;;;;;;;14.42;100.00;101453.00;5013492;28;20120;-48
2024/01/29 08:07:50;;;;;;;23.70;10.70;;;;;;;14.35;100.00;101449.44;5019612;28;20030;-45
2024/01/29 08:10:15;;;;;;;14.93;8.45;;;;;;;14.41;100.00;101448.69;5022098;28;20056;-46
2024/01/29 08:12:40;;;;;;;19.42;9.52;;;;;;;14.39;100.00;101440.88;5018407;28;20037;-44
2024/01/29 08:15:06;;;;;;;17.95;8.13;;;;;;;14.54;100.00;101440.00;5022810;28;20115;-46
2024/01/29 08:17:31;;;;;;;15.27;8.52;;;;;;;14.53;100.00;101446.34;5017405;28;20554;-45
2024/01/29 08:19:57;;;;;;;19.40;7.82;;;;;;;14.46;100.00;101453.47;5020846;28;20479;-46
2024/01/29 08:22:22;;;;;;;17.00;7.75;;;;;;;14.43;100.00;101438.66;5014760;28;20025;-45
2024/01/29 08:24:48;;;;;;;15.05;6.88;;;;;;;14.46;100.00;101438.25;5016392;28;20049;-44
2024/01/29 08:27:13;;;;;;;16.83;7.40;;;;;;;14.51;100.00;101427.03;5020250;28;20026;-47
2024/01/29 08:29:38;;;;;;;11.60;7.18;;;;;;;14.45;100.00;101439.25;5016478;28;20799;-48
2024/01/29 08:32:04;;;;;;;22.38;7.72;;;;;;;14.44;100.00;101450.16;5025266;28;20038;-47
2024/01/29 08:34:30;;;;;;;15.57;8.55;;;;;;;14.54;100.00;101448.81;5015619;28;20557;-46
2024/01/29 08:36:56;;;;;;;10.25;7.30;;;;;;;14.44;100.00;101450.97;5014558;28;20208;-45
2024/01/29 08:39:22;;;;;;;19.92;9.95;;;;;;;14.53;100.00;101460.53;5022390;28;20034;-45
2024/01/29 08:41:47;;;;;;;16.67;7.82;;;;;;;14.62;100.00;101471.88;5016539;28;21097;-44
2024/01/29 08:44:12;;;;;;;23.63;8.13;;;;;;;14.64;100.00;101469.84;5005440;28;20507;-44
2024/01/29 08:46:38;;;;;;;11.90;7.97;;;;;;;14.59;100.00;101467.75;5013181;28;20033;-44
2024/01/29 08:49:03;;;;;;;13.40;7.75;;;;;;;14.56;100.00;101469.97;5018717;28;20083;-47
2024/01/29 08:51:28;;;;;;;18.73;7.90;;;;;;;14.59;100.00;101470.41;5013840;28;20025;-45
2024/01/29 08:53:56;;;;;;;14.82;7.90;;;;;;;14.55;100.00;101477.16;5016799;28;20037;-44
2024/01/29 08:56:21;;;;;;;12.10;7.18;;;;;;;14.59;100.00;101478.44;5018326;28;20113;-45
2024/01/29 08:58:46;;;;;;;19.52;7.28;;;;;;;14.50;100.00;101489.38;5015745;28;20041;-45
2024/01/29 09:01:11;;;;;;;14.48;6.60;;;;;;;14.53;100.00;101489.03;5015061;28;20026;-44
2024/01/29 09:03:37;;;;;;;31.25;9.20;;;;;;;14.70;100.00;101493.09;5017458;28;20830;-48
2024/01/29 09:06:03;;;;;;;12.20;7.93;;;;;;;14.80;100.00;101492.75;5005631;28;20132;-45
2024/01/29 09:08:28;;;;;;;10.13;6.40;;;;;;;14.82;100.00;101488.06;5012512;28;20116;-49
2024/01/29 09:10:54;;;;;;;16.80;7.60;;;;;;;14.61;100.00;101491.56;5008723;28;20045;-46
2024/01/29 09:13:19;;;;;;;11.90;6.65;;;;;;;14.70;100.00;101503.75;5012334;28;20052;-48
2024/01/29 09:15:44;;;;;;;11.30;5.80;;;;;;;14.91;100.00;101502.88;5003998;28;20383;-47
2024/01/29 09:18:10;;;;;;;15.13;5.85;;;;;;;14.93;100.00;101498.19;5010428;28;20517;-44
2024/01/29 09:20:35;;;;;;;11.48;6.70;;;;;;;14.91;100.00;101492.22;5008869;28;20120;-45
2024/01/29 09:23:00;;;;;;;17.23;6.18;;;;;;;14.97;100.00;101491.44;5006599;28;20033;-45
2024/01/29 09:25:26;;;;;;;10.57;7.07;;;;;;;14.96;100.00;101483.63;5006175;28;20552;-46
2024/01/29 09:27:51;;;;;;;14.13;6.32;;;;;;;15.01;100.00;101491.88;5004842;28;20517;-47
2024/01/29 09:30:16;;;;;;;10.43;5.20;;;;;;;15.14;100.00;101481.25;4999401;28;20142;-46
2024/01/29 09:32:42;;;;;;;15.98;7.43;;;;;;;15.22;100.00;101482.94;5003676;28;20033;-45
2024/01/29 09:35:08;;;;;;;14.02;6.70;;;;;;;15.20;100.00;101475.13;5004208;28;20034;-49
2024/01/29 09:37:34;;;;;;;18.08;6.88;;;;;;;15.30;100.00;101471.28;5001680;28;20037;-46
2024/01/29 09:39:59;;;;;;;11.55;6.57;;;;;;;15.29;100.00;101467.78;5001892;28;20106;-45
2024/01/29 09:42:28;;;;;;;11.75;6.60;;;;;;;15.39;100.00;101478.94;5003241;28;20053;-45
2024/01/29 09:44:56;;;;;;;10.55;6.38;;;;;;;15.43;100.00;101474.81;4999861;28;20034;-47
2024/01/29 09:47:22;;;;;;;12.65;6.50;;;;;;;15.43;100.00;101485.50;5000027;28;20426;-45
2024/01/29 09:49:48;;;;;;;13.18;5.15;;;;;;;15.55;100.00;101477.75;5000922;28;20103;-45
2024/01/29 09:52:14;;;;;;;10.38;5.45;;;;;;;15.49;100.00;101476.72;4994341;28;20025;-45
2024/01/29 09:54:41;;;;;;;8.23;5.22;;;;;;;15.52;100.00;101475.50;4990668;28;20414;-48
2024/01/29 09:57:10;;;;;;;13.27;6.28;;;;;;;15.50;100.00;101477.53;5007970;28;20119;-49
2024/01/29 09:59:35;;;;;;;12.18;6.85;;;;;;;15.51;100.00;101476.50;5006847;28;20064;-49
2024/01/29 10:02:02;;;;;;;9.85;6.03;;;;;;;15.43;100.00;101482.84;5005795;28;20108;-47
2024/01/29 10:04:27;;;;;;;11.98;6.90;;;;;;;15.60;100.00;101479.84;5007173;28;20714;-48
2024/01/29 10:06:53;;;;;;;16.67;7.22;;;;;;;15.73;100.00;101479.09;5008852;28;20309;-47
2024/01/29 10:09:18;;;;;;;10.65;6.05;;;;;;;15.79;100.00;101470.25;5010460;28;20029;-50
2024/01/29 10:11:43;;;;;;;10.80;6.28;;;;;;;15.69;100.00;101463.47;5011564;28;20058;-46
2024/01/29 10:14:09;;;;;;;16.63;6.30;;;;;;;15.83;100.00;101468.84;5010774;28;20033;-47
2024/01/29 10:16:34;;;;;;;11.80;5.07;;;;;;;15.75;100.00;101475.19;5003578;28;20036;-46
2024/01/29 10:19:02;;;;;;;8.88;5.00;;;;;;;15.82;100.00;101470.69;5006892;28;20102;-45
2024/01/29 10:21:32;;;;;;;13.73;4.90;;;;;;;15.75;100.00;101464.50;4998557;28;20033;-45
2024/01/29 10:23:58;;;;;;;11.05;5.78;;;;;;;15.98;100.00;101465.97;4996381;28;20029;-46
2024/01/29 10:26:25;;;;;;;10.95;5.20;;;;;;;16.18;100.00;101463.34;5004109;28;20061;-47
2024/01/29 10:29:04;;;;;;;9.60;5.47;;;;;;;16.09;100.00;101458.19;5005875;28;20421;-45
2024/01/29 10:31:30;;;;;;;9.30;5.25;;;;;;;16.09;100.00;101454.69;5005174;28;20037;-48
2024/01/29 10:33:56;;;;;;;9.65;5.03;;;;;;;16.16;100.00;101455.53;5000435;28;20035;-45
2024/01/29 10:36:22;;;;;;;8.77;5.10;;;;;;;16.28;100.00;101450.38;5001403;28;20029;-50
2024/01/29 10:38:48;;;;;;;6.90;4.18;;;;;;;16.32;100.00;101460.50;5003869;28;20505;-47
2024/01/29 10:41:17;;;;;;;11.93;5.22;;;;;;;16.03;100.00;101453.66;5006928;28;20037;-48
2024/01/29 10:43:47;;;;;;;8.32;4.95;;;;;;;16.14;100.00;101457.59;5005199;28;20061;-46
2024/01/29 10:46:20;;;;;;;9.85;4.15;;;;;;;16.17;100.00;101461.72;5001485;28;20506;-48
2024/01/29 10:48:46;;;;;;;12.60;5.00;;;;;;;16.26;100.00;101458.66;5005759;28;20033;-46
2024/01/29 10:51:16;;;;;;;11.55;4.63;;;;;;;16.19;100.00;101457.81;5002553;28;20524;-45
2024/01/29 10:53:42;;;;;;;10.77;5.13;;;;;;;16.04;100.00;101460.66;5007968;28;20029;-46
2024/01/29 10:56:08;;;;;;;12.65;4.97;;;;;;;16.07;100.00;101459.44;5001864;28;20638;-46
2024/01/29 10:58:34;;;;;;;11.80;4.07;;;;;;;16.15;100.00;101459.22;5001254;28;20030;-46
2024/01/29 11:01:00;;;;;;;9.93;3.13;;;;;;;16.43;100.00;101458.22;5004267;28;20454;-47
2024/01/29 11:03:26;;;;;;;9.57;6.13;;;;;;;16.55;100.00;101468.09;5007835;28;20029;-49